SSA weather

Deputado Luiz Eduardo Magalhães International Airport
Salvador, Bahia, Brazil

Public forecast

Using degrees Celsius for public forecast. Weather courtesy of forecast.io.

Current aviation weather report (METAR) for Deputado Luiz Eduardo Magalhães International Airport

Retrieved 2019/10/19 11:00 UTC (36 minutes ago):

SBSV 191100Z 06006KT 9999 SCT023 27/21 Q1016

Aviation forecast (TAF) for Deputado Luiz Eduardo Magalhães International Airport

Retrieved 2019/10/19 06:31 UTC (5 hours ago):

TAF SBSV 190400Z 1906/2006 10010KT 8000 SCT015 TN25/1909Z TX29/1916Z BECMG 1916/1918 10015KT RMK PEU